createdAt,value
2018-03-03T00:00:07.329Z,977.16
2018-03-03T00:01:07.306Z,977.19
2018-03-03T00:02:07.281Z,977.20
2018-03-03T00:03:07.264Z,977.18
2018-03-03T00:04:07.236Z,977.19
2018-03-03T00:05:07.230Z,977.18
2018-03-03T00:06:07.203Z,977.16
2018-03-03T00:07:07.172Z,977.14
2018-03-03T00:08:07.153Z,977.10
2018-03-03T00:09:07.127Z,977.11
2018-03-03T00:10:07.102Z,977.13
2018-03-03T00:11:07.084Z,977.13
2018-03-03T00:12:07.077Z,977.11
2018-03-03T00:13:07.035Z,977.09
2018-03-03T00:14:07.019Z,977.11
2018-03-03T00:15:06.997Z,977.11
2018-03-03T00:16:06.973Z,977.06
2018-03-03T00:17:06.952Z,977.10
2018-03-03T00:18:06.923Z,977.11
2018-03-03T00:19:06.901Z,977.09
2018-03-03T00:20:06.879Z,977.11
2018-03-03T00:21:06.867Z,977.09
2018-03-03T00:22:06.839Z,977.10
2018-03-03T00:23:06.819Z,977.09
2018-03-03T00:24:06.805Z,977.07
2018-03-03T00:25:06.767Z,977.06
2018-03-03T00:26:06.752Z,977.04
2018-03-03T00:27:06.733Z,977.06
2018-03-03T00:28:06.713Z,977.07
2018-03-03T00:29:06.680Z,977.09
2018-03-03T00:30:06.661Z,977.00
2018-03-03T00:31:06.645Z,977.03
2018-03-03T00:32:06.616Z,977.02
2018-03-03T00:33:06.589Z,977.02
2018-03-03T00:34:06.566Z,976.99
2018-03-03T00:35:06.568Z,976.98
2018-03-03T00:36:06.522Z,976.95
2018-03-03T00:37:06.517Z,976.95
2018-03-03T00:38:06.476Z,976.94
2018-03-03T00:39:06.453Z,976.98
2018-03-03T00:40:06.440Z,976.97
2018-03-03T00:41:06.424Z,976.98
2018-03-03T00:42:06.386Z,976.99
2018-03-03T00:43:06.372Z,976.99
2018-03-03T00:44:06.352Z,977.02
2018-03-03T00:45:06.335Z,977.03
2018-03-03T00:46:06.304Z,977.01
2018-03-03T00:47:06.280Z,976.98
2018-03-03T00:48:06.259Z,976.98
2018-03-03T00:49:06.229Z,977.01
2018-03-03T00:50:06.208Z,977.00
2018-03-03T00:51:06.200Z,977.00
2018-03-03T00:52:06.168Z,977.01
2018-03-03T00:53:06.148Z,977.06
2018-03-03T00:54:06.124Z,977.05
2018-03-03T00:55:06.105Z,977.12
2018-03-03T00:56:06.083Z,977.12
2018-03-03T00:57:06.054Z,977.14
2018-03-03T00:58:06.036Z,977.15
2018-03-03T00:59:06.007Z,977.20
2018-03-03T01:00:05.990Z,977.17
2018-03-03T01:01:06.011Z,977.18
2018-03-03T01:02:05.940Z,977.15
2018-03-03T01:03:05.918Z,977.15
2018-03-03T01:04:05.899Z,977.16
2018-03-03T01:05:05.888Z,977.16
2018-03-03T01:06:05.850Z,977.21
2018-03-03T01:07:05.831Z,977.20
2018-03-03T01:08:05.805Z,977.23
2018-03-03T01:09:05.795Z,977.21
2018-03-03T01:10:05.766Z,977.19
2018-03-03T01:11:05.737Z,977.17
2018-03-03T01:12:05.731Z,977.18
2018-03-03T01:13:05.699Z,977.21
2018-03-03T01:14:05.679Z,977.12
2018-03-03T01:15:05.655Z,977.13
2018-03-03T01:16:05.626Z,977.15
2018-03-03T01:17:05.613Z,977.14
2018-03-03T01:18:05.580Z,977.16
2018-03-03T01:19:05.565Z,977.12
2018-03-03T01:20:05.533Z,977.09
2018-03-03T01:21:05.520Z,977.09
2018-03-03T01:22:05.496Z,977.10
2018-03-03T01:23:05.478Z,977.10
2018-03-03T01:24:05.449Z,977.05
2018-03-03T01:25:05.430Z,977.03
2018-03-03T01:26:05.417Z,977.00
2018-03-03T01:27:05.381Z,977.01
2018-03-03T01:28:05.363Z,977.00
2018-03-03T01:29:05.340Z,976.99
2018-03-03T01:30:05.984Z,976.94
2018-03-03T01:31:05.298Z,976.92
2018-03-03T01:32:05.270Z,976.87
2018-03-03T01:33:05.260Z,976.87
2018-03-03T01:34:05.238Z,976.84
2018-03-03T01:35:05.215Z,976.84
2018-03-03T01:36:05.184Z,976.80
2018-03-03T01:37:05.168Z,976.81
2018-03-03T01:38:05.136Z,976.83
2018-03-03T01:39:05.113Z,976.81
2018-03-03T01:40:05.101Z,976.80
2018-03-03T01:41:05.071Z,976.81
2018-03-03T01:42:05.061Z,976.81
2018-03-03T01:43:05.022Z,976.77
2018-03-03T01:44:05.007Z,976.78
2018-03-03T01:45:04.978Z,976.82
2018-03-03T01:46:04.965Z,976.80
2018-03-03T01:47:04.933Z,976.77
2018-03-03T01:48:04.933Z,976.77
2018-03-03T01:49:04.893Z,976.80
2018-03-03T01:50:04.869Z,976.75
2018-03-03T01:51:04.854Z,976.75
2018-03-03T01:52:04.819Z,976.74
2018-03-03T01:53:04.800Z,976.73
2018-03-03T01:54:04.787Z,976.75
2018-03-03T01:55:04.755Z,976.76
2018-03-03T01:56:04.743Z,976.77
2018-03-03T01:57:04.713Z,976.83
2018-03-03T01:58:04.696Z,976.82
2018-03-03T01:59:04.668Z,976.79
2018-03-03T02:00:04.646Z,976.74
2018-03-03T02:01:04.629Z,976.70
2018-03-03T02:02:04.610Z,976.64
2018-03-03T02:03:04.598Z,976.62
2018-03-03T02:04:04.559Z,976.57
2018-03-03T02:05:04.534Z,976.55
2018-03-03T02:06:04.514Z,976.57
2018-03-03T02:07:04.500Z,976.58
2018-03-03T02:08:04.470Z,976.62
2018-03-03T02:09:04.446Z,976.61
2018-03-03T02:10:04.426Z,976.61
2018-03-03T02:11:04.398Z,976.63
2018-03-03T02:12:04.381Z,976.66
2018-03-03T02:13:04.383Z,976.66
2018-03-03T02:14:04.337Z,976.67
2018-03-03T02:15:04.315Z,976.70
2018-03-03T02:16:04.285Z,976.64
2018-03-03T02:17:04.272Z,976.61
2018-03-03T02:18:04.245Z,976.62
2018-03-03T02:19:04.256Z,976.61
2018-03-03T02:20:04.209Z,976.60
2018-03-03T02:21:04.174Z,976.60
2018-03-03T02:22:04.155Z,976.64
2018-03-03T02:23:04.148Z,976.60
2018-03-03T02:24:04.149Z,976.63
2018-03-03T02:25:04.084Z,976.58
2018-03-03T02:26:04.064Z,976.59
2018-03-03T02:27:04.045Z,976.60
2018-03-03T02:28:04.023Z,976.67
2018-03-03T02:29:04.010Z,976.65
2018-03-03T02:30:03.975Z,976.61
2018-03-03T02:31:03.959Z,976.57
2018-03-03T02:32:03.937Z,976.56
2018-03-03T02:33:03.908Z,976.50
2018-03-03T02:34:03.885Z,976.51
2018-03-03T02:35:03.866Z,976.44
2018-03-03T02:36:03.850Z,976.43
2018-03-03T02:37:03.821Z,976.41
2018-03-03T02:38:03.798Z,976.43
2018-03-03T02:39:03.773Z,976.45
2018-03-03T02:40:03.741Z,976.40
2018-03-03T02:41:03.734Z,976.40
2018-03-03T02:42:03.716Z,976.43
2018-03-03T02:43:03.691Z,976.36
2018-03-03T02:44:03.661Z,976.36
2018-03-03T02:45:03.648Z,976.36
2018-03-03T02:46:03.621Z,976.35
2018-03-03T02:47:03.603Z,976.31
2018-03-03T02:48:03.595Z,976.32
2018-03-03T02:49:03.552Z,976.33
2018-03-03T02:50:03.535Z,976.27
2018-03-03T02:51:03.512Z,976.19
2018-03-03T02:52:03.480Z,976.21
2018-03-03T02:53:03.468Z,976.19
2018-03-03T02:54:03.445Z,976.19
2018-03-03T02:55:03.419Z,976.20
2018-03-03T02:56:03.399Z,976.22
2018-03-03T02:57:03.378Z,976.22
2018-03-03T02:58:03.355Z,976.15
2018-03-03T02:59:03.336Z,976.15
2018-03-03T03:00:03.304Z,976.15
2018-03-03T03:01:03.290Z,976.11
2018-03-03T03:02:03.272Z,976.05
2018-03-03T03:03:03.240Z,976.10
2018-03-03T03:04:03.214Z,976.09
2018-03-03T03:05:03.199Z,976.05
2018-03-03T03:06:03.178Z,975.99
2018-03-03T03:07:03.158Z,975.96
2018-03-03T03:08:03.131Z,975.96
2018-03-03T03:09:03.113Z,975.95
2018-03-03T03:10:03.084Z,975.99
2018-03-03T03:11:03.059Z,975.99
2018-03-03T03:12:03.037Z,975.97
2018-03-03T03:13:03.015Z,975.97
2018-03-03T03:14:02.996Z,975.94
2018-03-03T03:15:02.981Z,975.86
2018-03-03T03:16:02.953Z,975.89
2018-03-03T03:17:02.928Z,975.81
2018-03-03T03:18:02.912Z,975.81
2018-03-03T03:19:02.886Z,975.77
2018-03-03T03:20:02.870Z,975.79
2018-03-03T03:21:02.835Z,975.77
2018-03-03T03:22:02.820Z,975.81
2018-03-03T03:23:02.817Z,975.81
2018-03-03T03:24:02.772Z,975.83
2018-03-03T03:25:02.746Z,975.82
2018-03-03T03:26:02.728Z,975.83
2018-03-03T03:27:02.707Z,975.83
2018-03-03T03:28:02.684Z,975.78
2018-03-03T03:29:02.658Z,975.81
2018-03-03T03:30:02.643Z,975.82
2018-03-03T03:31:02.617Z,975.82
2018-03-03T03:32:02.594Z,975.82
2018-03-03T03:33:02.569Z,975.81
2018-03-03T03:34:02.556Z,975.81
2018-03-03T03:35:02.530Z,975.82
2018-03-03T03:36:02.505Z,975.80
2018-03-03T03:37:02.484Z,975.77
2018-03-03T03:38:02.457Z,975.78
2018-03-03T03:39:02.439Z,975.78
2018-03-03T03:40:02.424Z,975.81
2018-03-03T03:41:02.396Z,975.77
2018-03-03T03:42:02.371Z,975.78
2018-03-03T03:43:02.346Z,975.72
2018-03-03T03:44:02.323Z,975.65
2018-03-03T03:45:02.301Z,975.66
2018-03-03T03:46:02.281Z,975.70
2018-03-03T03:47:02.256Z,975.67
2018-03-03T03:48:02.240Z,975.70
2018-03-03T03:49:02.217Z,975.67
2018-03-03T03:50:02.214Z,975.67
2018-03-03T03:51:02.173Z,975.65
2018-03-03T03:52:02.147Z,975.63
2018-03-03T03:53:02.125Z,975.65
2018-03-03T03:54:02.099Z,975.60
2018-03-03T03:55:02.078Z,975.64
2018-03-03T03:56:02.059Z,975.65
2018-03-03T03:57:02.034Z,975.70
2018-03-03T03:58:02.020Z,975.70
2018-03-03T03:59:02.001Z,975.68
2018-03-03T04:00:01.972Z,975.68
2018-03-03T04:01:01.944Z,975.70
2018-03-03T04:02:01.925Z,975.70
2018-03-03T04:03:01.906Z,975.76
2018-03-03T04:04:01.877Z,975.80
2018-03-03T04:05:01.860Z,975.82
2018-03-03T04:06:01.832Z,975.84
2018-03-03T04:07:01.821Z,975.85
2018-03-03T04:08:01.790Z,975.83
2018-03-03T04:09:01.764Z,975.82
2018-03-03T04:10:01.751Z,975.81
2018-03-03T04:11:01.720Z,975.75
2018-03-03T04:12:01.697Z,975.74
2018-03-03T04:13:01.675Z,975.74
2018-03-03T04:14:01.658Z,975.73
2018-03-03T04:15:01.633Z,975.70
2018-03-03T04:16:01.607Z,975.71
2018-03-03T04:17:01.599Z,975.71
2018-03-03T04:18:01.572Z,975.66
2018-03-03T04:19:01.546Z,975.67
2018-03-03T04:20:01.522Z,975.60
2018-03-03T04:21:01.505Z,975.61
2018-03-03T04:22:01.483Z,975.60
2018-03-03T04:23:01.468Z,975.54
2018-03-03T04:24:01.440Z,975.50
2018-03-03T04:25:01.410Z,975.47
2018-03-03T04:26:01.390Z,975.45
2018-03-03T04:27:01.369Z,975.44
2018-03-03T04:28:01.341Z,975.38
2018-03-03T04:29:01.327Z,975.41
2018-03-03T04:30:01.302Z,975.36
2018-03-03T04:31:01.284Z,975.28
2018-03-03T04:32:01.266Z,975.32
2018-03-03T04:33:01.231Z,975.30
2018-03-03T04:34:01.215Z,975.28
2018-03-03T04:35:01.186Z,975.34
2018-03-03T04:36:01.163Z,975.30
2018-03-03T04:37:01.154Z,975.30
2018-03-03T04:38:01.119Z,975.28
2018-03-03T04:39:01.096Z,975.28
2018-03-03T04:40:01.071Z,975.26
2018-03-03T04:41:01.071Z,975.25
2018-03-03T04:42:01.026Z,975.30
2018-03-03T04:43:01.013Z,975.29
2018-03-03T04:44:00.988Z,975.30
2018-03-03T04:45:00.969Z,975.28
2018-03-03T04:46:00.936Z,975.29
2018-03-03T04:47:00.919Z,975.28
2018-03-03T04:48:00.892Z,975.26
2018-03-03T04:49:00.873Z,975.30
2018-03-03T04:50:00.850Z,975.32
2018-03-03T04:51:00.828Z,975.31
2018-03-03T04:52:00.808Z,975.29
2018-03-03T04:53:00.786Z,975.29
2018-03-03T04:54:00.757Z,975.31
2018-03-03T04:55:00.741Z,975.31
2018-03-03T04:56:00.716Z,975.32
2018-03-03T04:57:00.698Z,975.26
2018-03-03T04:58:00.676Z,975.30
2018-03-03T04:59:00.647Z,975.26
2018-03-03T05:00:00.623Z,975.28
2018-03-03T05:01:00.602Z,975.25
2018-03-03T05:02:00.579Z,975.20
2018-03-03T05:03:00.566Z,975.20
2018-03-03T05:04:00.537Z,975.15
2018-03-03T05:05:00.518Z,975.15
2018-03-03T05:06:00.492Z,975.14
2018-03-03T05:07:00.468Z,975.15
2018-03-03T05:08:00.455Z,975.17
2018-03-03T05:09:00.423Z,975.15
2018-03-03T05:10:00.400Z,975.13
2018-03-03T05:11:00.385Z,975.15
2018-03-03T05:12:00.359Z,975.13
2018-03-03T05:13:00.334Z,975.15
2018-03-03T05:14:00.308Z,975.12
2018-03-03T05:15:00.295Z,975.12
2018-03-03T05:16:00.268Z,975.15
2018-03-03T05:17:00.246Z,975.11
2018-03-03T05:18:00.237Z,975.12
2018-03-03T05:19:00.207Z,975.09
2018-03-03T05:20:00.188Z,975.07
2018-03-03T05:21:00.169Z,975.08
2018-03-03T05:22:00.138Z,975.05
2018-03-03T05:23:00.118Z,975.04
2018-03-03T05:24:00.087Z,975.05
2018-03-03T05:25:00.068Z,975.06
2018-03-03T05:26:00.049Z,975.06
2018-03-03T05:27:00.030Z,975.04
2018-03-03T05:28:00.001Z,975.04
2018-03-03T05:28:59.979Z,975.07
2018-03-03T05:29:59.962Z,975.05
2018-03-03T05:30:59.947Z,974.99
2018-03-03T05:31:59.914Z,975.02
2018-03-03T05:32:59.888Z,975.02
2018-03-03T05:33:59.875Z,975.03
2018-03-03T05:34:59.843Z,975.04
2018-03-03T05:35:59.824Z,975.08
2018-03-03T05:36:59.806Z,975.07
2018-03-03T05:37:59.785Z,975.11
2018-03-03T05:38:59.754Z,975.05
2018-03-03T05:39:59.735Z,975.02
2018-03-03T05:40:59.712Z,975.00
2018-03-03T05:41:59.694Z,975.02
2018-03-03T05:42:59.669Z,975.02
2018-03-03T05:43:59.650Z,975.04
2018-03-03T05:44:59.620Z,975.07
2018-03-03T05:45:59.598Z,975.06
2018-03-03T05:46:59.579Z,975.02
2018-03-03T05:47:59.560Z,975.00
2018-03-03T05:48:59.535Z,974.98
2018-03-03T05:49:59.509Z,974.98
2018-03-03T05:50:59.492Z,974.98
2018-03-03T05:51:59.483Z,974.98
2018-03-03T05:52:59.441Z,975.02
2018-03-03T05:53:59.418Z,975.02
2018-03-03T05:54:59.400Z,975.03
2018-03-03T05:55:59.380Z,975.02
2018-03-03T05:56:59.356Z,975.01
2018-03-03T05:57:59.330Z,975.02
2018-03-03T05:58:59.317Z,974.99
2018-03-03T05:59:59.310Z,975.00
2018-03-03T06:00:59.297Z,974.99
2018-03-03T06:01:59.252Z,975.01
2018-03-03T06:02:59.236Z,975.03
2018-03-03T06:03:59.196Z,975.00
2018-03-03T06:04:59.186Z,974.96
2018-03-03T06:05:59.156Z,974.98
2018-03-03T06:06:59.140Z,974.95
2018-03-03T06:07:59.115Z,974.91
2018-03-03T06:08:59.085Z,974.95
2018-03-03T06:09:59.069Z,974.96
2018-03-03T06:10:59.038Z,974.96
2018-03-03T06:11:59.025Z,974.98
2018-03-03T06:12:59.002Z,975.00
2018-03-03T06:13:59.006Z,974.99
2018-03-03T06:14:58.957Z,975.01
2018-03-03T06:15:58.934Z,975.00
2018-03-03T06:16:58.913Z,975.00
2018-03-03T06:17:58.889Z,974.97
2018-03-03T06:18:58.862Z,974.98
2018-03-03T06:19:58.844Z,975.01
2018-03-03T06:20:58.821Z,974.97
2018-03-03T06:21:58.850Z,975.02
2018-03-03T06:22:58.773Z,975.01
2018-03-03T06:23:58.750Z,975.01
2018-03-03T06:24:58.731Z,974.99
2018-03-03T06:25:58.716Z,974.99
2018-03-03T06:26:58.698Z,974.97
2018-03-03T06:27:58.667Z,974.98
2018-03-03T06:28:58.639Z,974.96
2018-03-03T06:29:58.617Z,975.02
2018-03-03T06:30:58.607Z,975.02
2018-03-03T06:31:58.587Z,975.05
2018-03-03T06:32:58.553Z,975.07
2018-03-03T06:33:58.527Z,975.06
2018-03-03T06:34:58.512Z,975.10
2018-03-03T06:35:58.537Z,975.07
2018-03-03T06:36:58.460Z,975.07
2018-03-03T06:37:58.447Z,975.06
2018-03-03T06:38:58.425Z,975.04
2018-03-03T06:39:58.406Z,975.04
2018-03-03T06:40:58.370Z,975.05
2018-03-03T06:41:58.351Z,975.01
2018-03-03T06:42:58.332Z,975.02
2018-03-03T06:43:58.303Z,975.02
2018-03-03T06:44:58.285Z,975.04
2018-03-03T06:45:58.260Z,975.07
2018-03-03T06:46:58.237Z,975.07
2018-03-03T06:47:58.216Z,975.07
2018-03-03T06:48:58.196Z,975.06
2018-03-03T06:49:58.175Z,975.06
2018-03-03T06:50:58.151Z,975.08
2018-03-03T06:51:58.131Z,975.02
2018-03-03T06:52:58.116Z,975.02
2018-03-03T06:53:58.094Z,975.01
2018-03-03T06:54:58.078Z,975.01
2018-03-03T06:55:58.043Z,974.99
2018-03-03T06:56:58.029Z,975.02
2018-03-03T06:57:57.997Z,975.04
2018-03-03T06:58:57.982Z,975.05
2018-03-03T06:59:57.957Z,975.09
2018-03-03T07:00:57.927Z,975.07
2018-03-03T07:01:57.905Z,975.12
2018-03-03T07:02:57.881Z,975.11
2018-03-03T07:03:57.881Z,975.11
2018-03-03T07:04:57.840Z,975.11
2018-03-03T07:05:57.817Z,975.11
2018-03-03T07:06:57.798Z,975.06
2018-03-03T07:07:57.779Z,975.05
2018-03-03T07:08:57.747Z,975.05
2018-03-03T07:09:57.725Z,975.03
2018-03-03T07:10:57.712Z,975.04
2018-03-03T07:11:57.687Z,975.02
2018-03-03T07:12:57.659Z,975.04
2018-03-03T07:13:57.633Z,975.03
2018-03-03T07:14:57.620Z,975.00
2018-03-03T07:15:57.604Z,974.99
2018-03-03T07:16:57.573Z,974.99
2018-03-03T07:17:57.558Z,975.02
2018-03-03T07:18:57.528Z,974.95
2018-03-03T07:19:57.508Z,975.03
2018-03-03T07:20:57.479Z,975.04
2018-03-03T07:21:57.463Z,975.01
2018-03-03T07:22:57.440Z,975.02
2018-03-03T07:23:57.412Z,975.02
2018-03-03T07:24:57.396Z,975.01
2018-03-03T07:25:57.366Z,975.00
2018-03-03T07:26:57.347Z,974.98
2018-03-03T07:27:57.324Z,974.97
2018-03-03T07:28:57.309Z,974.98
2018-03-03T07:29:57.292Z,975.00
2018-03-03T07:30:57.260Z,974.99
2018-03-03T07:31:57.247Z,974.99
2018-03-03T07:32:57.227Z,975.03
2018-03-03T07:33:57.189Z,975.00
2018-03-03T07:34:57.180Z,975.05
2018-03-03T07:35:57.157Z,975.05
2018-03-03T07:36:57.130Z,975.08
2018-03-03T07:37:57.103Z,975.07
2018-03-03T07:38:57.090Z,975.12
2018-03-03T07:39:57.067Z,975.08
2018-03-03T07:40:57.036Z,975.06
2018-03-03T07:41:57.026Z,975.05
2018-03-03T07:42:57.053Z,975.08
2018-03-03T07:43:56.969Z,975.10
2018-03-03T07:44:56.952Z,975.13
2018-03-03T07:45:56.930Z,975.12
2018-03-03T07:46:56.930Z,975.10
2018-03-03T07:47:56.905Z,975.10
2018-03-03T07:48:56.866Z,975.14
2018-03-03T07:49:56.852Z,975.12
2018-03-03T07:50:56.823Z,975.08
2018-03-03T07:51:56.796Z,975.09
2018-03-03T07:52:56.782Z,975.07
2018-03-03T07:53:56.770Z,975.11
2018-03-03T07:54:56.738Z,975.11
2018-03-03T07:55:56.718Z,975.13
2018-03-03T07:56:56.695Z,975.17
2018-03-03T07:57:56.670Z,975.13
2018-03-03T07:58:56.650Z,975.10
2018-03-03T07:59:56.638Z,975.14
2018-03-03T08:00:56.602Z,975.11
2018-03-03T08:01:56.583Z,975.14
2018-03-03T08:02:56.564Z,975.16
2018-03-03T08:03:56.541Z,975.13
2018-03-03T08:04:56.522Z,975.19
2018-03-03T08:05:56.503Z,975.21
2018-03-03T08:06:56.486Z,975.14
2018-03-03T08:07:56.453Z,975.19
2018-03-03T08:08:56.431Z,975.17
2018-03-03T08:09:56.422Z,975.21
2018-03-03T08:10:56.425Z,975.22
2018-03-03T08:11:56.368Z,975.21
2018-03-03T08:12:56.351Z,975.21
2018-03-03T08:13:56.320Z,975.20
2018-03-03T08:14:56.297Z,975.23
2018-03-03T08:15:56.284Z,975.27
2018-03-03T08:16:56.265Z,975.23
2018-03-03T08:17:56.236Z,975.23
2018-03-03T08:18:56.226Z,975.26
2018-03-03T08:19:56.189Z,975.24
2018-03-03T08:20:56.193Z,975.19
2018-03-03T08:21:56.159Z,975.19
2018-03-03T08:22:56.134Z,975.25
2018-03-03T08:23:56.108Z,975.23
2018-03-03T08:24:56.093Z,975.25
2018-03-03T08:25:56.074Z,975.26
2018-03-03T08:26:56.054Z,975.24
2018-03-03T08:27:56.030Z,975.20
2018-03-03T08:28:56.032Z,975.23
2018-03-03T08:29:55.996Z,975.20
2018-03-03T08:30:55.980Z,975.17
2018-03-03T08:31:55.958Z,975.15
2018-03-03T08:32:55.917Z,975.13
2018-03-03T08:33:55.895Z,975.12
2018-03-03T08:34:55.879Z,975.08
2018-03-03T08:35:55.854Z,975.13
2018-03-03T08:36:55.847Z,975.08
2018-03-03T08:37:55.815Z,975.07
2018-03-03T08:38:55.790Z,975.10
2018-03-03T08:39:55.786Z,975.09
2018-03-03T08:40:55.751Z,975.10
2018-03-03T08:41:55.742Z,975.12
2018-03-03T08:42:55.726Z,975.13
2018-03-03T08:43:55.711Z,975.13
2018-03-03T08:44:55.665Z,975.15
2018-03-03T08:45:55.660Z,975.16
2018-03-03T08:46:55.634Z,975.13
2018-03-03T08:47:55.610Z,975.16
2018-03-03T08:48:55.589Z,975.13
2018-03-03T08:49:55.558Z,975.17
2018-03-03T08:50:55.551Z,975.16
2018-03-03T08:51:55.528Z,975.16
2018-03-03T08:52:55.507Z,975.19
2018-03-03T08:53:55.485Z,975.14
2018-03-03T08:54:55.479Z,975.17
2018-03-03T08:55:55.439Z,975.20
2018-03-03T08:56:55.425Z,975.17
2018-03-03T08:57:55.407Z,975.15
2018-03-03T08:58:55.375Z,975.18
2018-03-03T08:59:55.356Z,975.16
2018-03-03T09:00:55.362Z,975.15
2018-03-03T09:01:55.328Z,975.14
2018-03-03T09:02:55.305Z,975.15
2018-03-03T09:03:55.271Z,975.17
2018-03-03T09:04:55.257Z,975.18
2018-03-03T09:05:55.240Z,975.23
2018-03-03T09:06:55.222Z,975.26
2018-03-03T09:07:55.204Z,975.29
2018-03-03T09:08:55.169Z,975.27
2018-03-03T09:09:55.152Z,975.23
2018-03-03T09:10:55.138Z,975.16
2018-03-03T09:11:55.120Z,975.22
2018-03-03T09:12:55.087Z,975.15
2018-03-03T09:13:55.061Z,975.15
2018-03-03T09:14:55.046Z,975.12
2018-03-03T09:15:55.027Z,975.12
2018-03-03T09:16:55.020Z,975.14
2018-03-03T09:17:54.978Z,975.13
2018-03-03T09:18:54.961Z,975.16
2018-03-03T09:19:54.940Z,975.18
2018-03-03T09:20:54.951Z,975.17
2018-03-03T09:21:54.896Z,975.18
2018-03-03T09:22:54.921Z,975.22
2018-03-03T09:23:54.864Z,975.21
2018-03-03T09:24:54.845Z,975.23
2018-03-03T09:25:54.839Z,975.18
2018-03-03T09:26:54.810Z,975.21
2018-03-03T09:27:54.771Z,975.22
2018-03-03T09:28:54.757Z,975.17
2018-03-03T09:29:54.733Z,975.18
2018-03-03T09:30:54.741Z,975.26
2018-03-03T09:31:54.693Z,975.22
2018-03-03T09:32:54.687Z,975.28
2018-03-03T09:33:54.770Z,975.21
2018-03-03T09:34:54.662Z,975.21
2018-03-03T09:35:54.649Z,975.22
2018-03-03T09:36:54.600Z,975.23
2018-03-03T09:37:54.585Z,975.20
2018-03-03T09:38:54.549Z,975.25
2018-03-03T09:39:54.533Z,975.23
2018-03-03T09:40:54.511Z,975.25
2018-03-03T09:41:54.487Z,975.26
2018-03-03T09:42:54.484Z,975.26
2018-03-03T09:43:54.443Z,975.32
2018-03-03T09:44:54.427Z,975.31
2018-03-03T09:45:54.418Z,975.28
2018-03-03T09:46:54.392Z,975.28
2018-03-03T09:47:54.366Z,975.32
2018-03-03T09:48:54.353Z,975.36
2018-03-03T09:49:54.334Z,975.39
2018-03-03T09:50:54.325Z,975.38
2018-03-03T09:51:54.302Z,975.37
2018-03-03T09:52:54.266Z,975.33
2018-03-03T09:53:54.244Z,975.35
2018-03-03T09:54:54.225Z,975.35
2018-03-03T09:55:54.312Z,975.35
2018-03-03T09:56:54.199Z,975.35
2018-03-03T09:57:54.179Z,975.36
2018-03-03T09:58:54.198Z,975.33
2018-03-03T09:59:54.122Z,975.31
2018-03-03T10:00:54.112Z,975.34
2018-03-03T10:02:05.923Z,975.31
2018-03-03T10:02:54.067Z,975.33
2018-03-03T10:03:54.042Z,975.34
2018-03-03T10:04:54.035Z,975.31
2018-03-03T10:05:54.013Z,975.28
2018-03-03T10:06:53.988Z,975.29
2018-03-03T10:07:53.966Z,975.28
2018-03-03T10:08:53.953Z,975.30
2018-03-03T10:09:53.937Z,975.30
2018-03-03T10:10:54.003Z,975.29
2018-03-03T10:11:53.890Z,975.29
2018-03-03T10:12:53.869Z,975.21
2018-03-03T10:13:53.850Z,975.29
2018-03-03T10:14:53.830Z,975.27
2018-03-03T10:15:53.815Z,975.24
2018-03-03T10:16:53.801Z,975.28
2018-03-03T10:17:53.766Z,975.20
2018-03-03T10:18:53.747Z,975.21
2018-03-03T10:19:53.728Z,975.22
2018-03-03T10:20:53.706Z,975.26
2018-03-03T10:21:53.711Z,975.26
2018-03-03T10:22:53.663Z,975.24
2018-03-03T10:23:53.650Z,975.21
2018-03-03T10:24:53.631Z,975.21
2018-03-03T10:25:53.614Z,975.16
2018-03-03T10:26:53.602Z,975.16
2018-03-03T10:27:53.580Z,975.15
2018-03-03T10:28:53.568Z,975.15
2018-03-03T10:29:53.528Z,975.18
2018-03-03T10:30:53.516Z,975.21
2018-03-03T10:31:53.497Z,975.22
2018-03-03T10:32:53.498Z,975.23
2018-03-03T10:33:53.465Z,975.26
2018-03-03T10:34:53.448Z,975.27
2018-03-03T10:35:53.420Z,975.24
2018-03-03T10:36:53.435Z,975.25
2018-03-03T10:37:53.398Z,975.24
2018-03-03T10:38:53.366Z,975.25
2018-03-03T10:39:53.352Z,975.24
2018-03-03T10:40:53.333Z,975.22
2018-03-03T10:41:53.308Z,975.19
2018-03-03T10:42:53.295Z,975.22
2018-03-03T10:43:53.267Z,975.20
2018-03-03T10:44:53.242Z,975.17
2018-03-03T10:45:53.243Z,975.16
2018-03-03T10:46:53.216Z,975.11
2018-03-03T10:47:53.216Z,975.15
2018-03-03T10:48:53.177Z,975.16
2018-03-03T10:49:53.161Z,975.17
2018-03-03T10:50:53.142Z,975.12
2018-03-03T10:51:53.132Z,975.14
2018-03-03T10:52:53.098Z,975.16
2018-03-03T10:53:53.081Z,975.21
2018-03-03T10:54:53.075Z,975.17
2018-03-03T10:55:53.050Z,975.16
2018-03-03T10:56:53.031Z,975.18
2018-03-03T10:57:53.034Z,975.19
2018-03-03T10:58:53.006Z,975.16
2018-03-03T10:59:52.986Z,975.17
2018-03-03T11:00:52.960Z,975.18
2018-03-03T11:01:52.941Z,975.18
2018-03-03T11:02:52.919Z,975.13
2018-03-03T11:03:52.921Z,975.13
2018-03-03T11:04:52.909Z,975.16
2018-03-03T11:05:52.866Z,975.14
2018-03-03T11:06:52.865Z,975.14
2018-03-03T11:07:52.830Z,975.16
2018-03-03T11:08:52.818Z,975.13
2018-03-03T11:09:52.798Z,975.14
2018-03-03T11:10:52.795Z,975.09
2018-03-03T11:11:52.765Z,975.11
2018-03-03T11:12:52.748Z,975.12
2018-03-03T11:13:52.728Z,975.10
2018-03-03T11:14:52.718Z,975.08
2018-03-03T11:15:52.695Z,975.11
2018-03-03T11:16:52.687Z,975.10
2018-03-03T11:17:52.666Z,975.08
2018-03-03T11:18:52.655Z,975.05
2018-03-03T11:19:52.628Z,975.09
2018-03-03T11:20:52.617Z,975.06
2018-03-03T11:21:52.601Z,975.05
2018-03-03T11:22:52.569Z,975.08
2018-03-03T11:23:52.546Z,975.04
2018-03-03T11:24:52.541Z,975.05
2018-03-03T11:25:52.528Z,975.05
2018-03-03T11:26:52.502Z,975.06
2018-03-03T11:27:52.487Z,975.10
2018-03-03T11:28:52.495Z,975.10
2018-03-03T11:29:52.453Z,975.11
2018-03-03T11:30:52.453Z,975.12
2018-03-03T11:31:52.420Z,975.11
2018-03-03T11:32:52.420Z,975.11
2018-03-03T11:33:52.402Z,975.13
2018-03-03T11:34:52.376Z,975.17
2018-03-03T11:35:52.379Z,975.15
2018-03-03T11:36:52.344Z,975.13
2018-03-03T11:37:52.324Z,975.15
2018-03-03T11:38:52.309Z,975.16
2018-03-03T11:39:52.290Z,975.13
2018-03-03T11:40:52.278Z,975.12
2018-03-03T11:41:52.275Z,975.15
2018-03-03T11:42:52.239Z,975.11
2018-03-03T11:43:52.230Z,975.05
2018-03-03T11:44:52.214Z,975.12
2018-03-03T11:45:52.201Z,975.09
2018-03-03T11:46:52.182Z,975.10
2018-03-03T11:47:52.175Z,975.09
2018-03-03T11:48:52.166Z,975.08
2018-03-03T11:49:52.137Z,975.09
2018-03-03T11:50:52.113Z,975.11
2018-03-03T11:51:52.105Z,975.11
2018-03-03T11:52:52.082Z,975.06
2018-03-03T11:53:52.076Z,975.04
2018-03-03T11:54:52.046Z,975.07
2018-03-03T11:55:52.038Z,975.05
2018-03-03T11:56:52.025Z,975.02
2018-03-03T11:57:52.009Z,975.07
2018-03-03T11:58:51.988Z,975.09
2018-03-03T11:59:51.979Z,975.08
2018-03-03T12:00:51.960Z,975.11
2018-03-03T12:01:51.951Z,975.06
2018-03-03T12:02:51.922Z,975.05
2018-03-03T12:03:51.912Z,975.05
2018-03-03T12:04:51.928Z,975.04
2018-03-03T12:05:51.880Z,975.11
2018-03-03T12:06:51.868Z,975.09
2018-03-03T12:07:51.857Z,975.07
2018-03-03T12:08:51.835Z,975.08
2018-03-03T12:09:51.816Z,975.04
2018-03-03T12:10:51.793Z,975.06
2018-03-03T12:11:51.783Z,975.06
2018-03-03T12:12:51.767Z,975.05
2018-03-03T12:13:51.752Z,974.99
2018-03-03T12:14:51.733Z,974.98
2018-03-03T12:15:51.723Z,974.97
2018-03-03T12:16:51.710Z,975.00
2018-03-03T12:17:51.690Z,975.00
2018-03-03T12:18:51.688Z,974.99
2018-03-03T12:19:51.658Z,974.96
2018-03-03T12:20:51.659Z,975.02
2018-03-03T12:21:51.633Z,975.02
2018-03-03T12:22:51.630Z,975.04
2018-03-03T12:23:51.601Z,974.99
2018-03-03T12:24:51.578Z,975.02
2018-03-03T12:25:51.569Z,975.05
2018-03-03T12:26:51.551Z,975.03
2018-03-03T12:27:51.541Z,975.02